This is the latest recevied weather packets stored in our database for station/object DL7KAW-10. If no packets are shown the sender has not sent any weather packets the latest 10 day(s).
| Time | Temp. | Humidity | Pressure | Rain* | Wind** | Luminosity | Snow |
|---|---|---|---|---|---|---|---|
| 1777632044 | 17.22° C | 48% | 1029.2 hPa | - | - | - | - |
| 1777631144 | 17.78° C | 44% | 1029.2 hPa | - | - | - | - |
| 1777630244 | 18.33° C | 44% | 1029.3 hPa | - | - | - | - |
| 1777629344 | 17.78° C | 47% | 1029.3 hPa | - | - | - | - |
| 1777628444 | 17.22° C | 48% | 1029.5 hPa | - | - | - | - |
| 1777627543 | 17.78° C | 47% | 1029.6 hPa | - | - | - | - |
| 1777626643 | 18.89° C | 43% | 1029.7 hPa | - | - | - | - |
| 1777625743 | 22.22° C | 36% | 1029.6 hPa | - | - | - | - |
| 1777624843 | 33.89° C | 22% | 1029.4 hPa | - | - | - | - |
| 1777623943 | 32.78° C | 23% | 1029.5 hPa | - | - | - | - |
| 1777623043 | 28.89° C | 28% | 1029.5 hPa | - | - | - | - |
| 1777622143 | 15.56° C | 53% | 1029.8 hPa | - | - | - | - |
| 1777621243 | 15.56° C | 54% | 1029.9 hPa | - | - | - | - |
| 1777620343 | 15° C | 55% | 1030 hPa | - | - | - | - |
| 1777619443 | 15° C | 55% | 1030 hPa | - | - | - | - |
| 1777618542 | 14.44° C | 55% | 1030.1 hPa | - | - | - | - |
| 1777617642 | 15° C | 53% | 1030.1 hPa | - | - | - | - |
| 1777616742 | 13.89° C | 57% | 1030 hPa | - | - | - | - |
| 1777615842 | 13.33° C | 58% | 1030 hPa | - | - | - | - |
| 1777614942 | 13.33° C | 58% | 1030.1 hPa | - | - | - | - |
| 1777614042 | 13.33° C | 58% | 1029.9 hPa | - | - | - | - |
| 1777613142 | 13.33° C | 58% | 1029.8 hPa | - | - | - | - |
| 1777612242 | 13.33° C | 58% | 1029.7 hPa | - | - | - | - |
| 1777611342 | 13.33° C | 58% | 1029.9 hPa | - | - | - | - |
| 1777610441 | 13.33° C | 58% | 1029.8 hPa | - | - | - | - |
* Rain since midnight (hover to see other rain measurements)
** Current wind speed in m/s (hover to see current wind gust speed)